createdAt,value
2022-08-20T00:00:17.388Z,95208.81
2022-08-20T00:03:21.656Z,95196.03
2022-08-20T00:06:27.245Z,95202.38
2022-08-20T00:09:29.957Z,95204.34
2022-08-20T00:12:31.759Z,95193.41
2022-08-20T00:15:34.925Z,95189.69
2022-08-20T00:18:38.443Z,95190.22
2022-08-20T00:21:40.099Z,95191.19
2022-08-20T00:24:42.118Z,95193.94
2022-08-20T00:27:43.858Z,95190.22
2022-08-20T00:30:46.185Z,95189.25
2022-08-20T00:33:49.243Z,95188.59
2022-08-20T00:36:50.933Z,95191.31
2022-08-20T00:39:52.726Z,95191.53
2022-08-20T00:42:57.180Z,95197.34
2022-08-20T00:45:59.639Z,95179.09
2022-08-20T00:49:02.813Z,95188.63
2022-08-20T00:52:06.994Z,95183.34
2022-08-20T00:55:09.764Z,95196.56
2022-08-20T00:58:11.415Z,95199.84
2022-08-20T01:01:14.408Z,95203.66
2022-08-20T01:04:17.770Z,95193.81
2022-08-20T01:07:19.475Z,95190.56
2022-08-20T01:10:22.903Z,95200.38
2022-08-20T01:13:24.691Z,95200.38
2022-08-20T01:16:29.472Z,95200.72
2022-08-20T01:19:35.204Z,95195.03
2022-08-20T01:22:40.712Z,95190.06
2022-08-20T01:25:46.038Z,95198.81
2022-08-20T01:28:49.829Z,95198.53
2022-08-20T01:31:51.522Z,95201.03
2022-08-20T01:34:53.170Z,95193.59
2022-08-20T01:37:55.006Z,95194.91
2022-08-20T01:41:14.842Z,95205.09
2022-08-20T01:44:20.754Z,95197.75
2022-08-20T01:47:24.357Z,95192.19
2022-08-20T01:50:27.519Z,95195.78
2022-08-20T01:53:31.040Z,95199.59
2022-08-20T01:56:34.303Z,95185.72
2022-08-20T01:59:37.962Z,95181.91
2022-08-20T02:02:39.890Z,95187.38
2022-08-20T02:05:41.541Z,95189.38
2022-08-20T02:08:43.248Z,95190.75
2022-08-20T02:11:45.110Z,95189.03
2022-08-20T02:14:49.440Z,95189.31
2022-08-20T02:17:51.169Z,95194.50
2022-08-20T02:20:52.907Z,95192.09
2022-08-20T02:23:55.585Z,95189.13
2022-08-20T02:26:57.201Z,95186.84
2022-08-20T02:30:00.233Z,95182.69
2022-08-20T02:33:03.318Z,95175.47
2022-08-20T02:36:05.266Z,95172.53
2022-08-20T02:39:07.540Z,95179.41
2022-08-20T02:42:09.597Z,95181.88
2022-08-20T02:45:13.773Z,95189.41
2022-08-20T02:48:21.618Z,95195.34
2022-08-20T02:51:28.657Z,95204.13
2022-08-20T02:54:32.427Z,95206.56
2022-08-20T02:57:34.325Z,95206.97
2022-08-20T03:00:37.930Z,95204.06
2022-08-20T03:03:40.705Z,95200.56
2022-08-20T03:06:42.341Z,95202.56
2022-08-20T03:09:44.012Z,95192.06
2022-08-20T03:12:45.718Z,95193.06
2022-08-20T03:15:56.598Z,95193.38
2022-08-20T03:19:00.235Z,95190.94
2022-08-20T03:22:01.912Z,95193.59
2022-08-20T03:25:03.835Z,95194.31
2022-08-20T03:28:05.475Z,95193.59
2022-08-20T03:31:08.940Z,95198.72
2022-08-20T03:34:10.683Z,95206.34
2022-08-20T03:37:12.325Z,95210.56
2022-08-20T03:40:15.779Z,95201.19
2022-08-20T03:43:18.330Z,95199.03
2022-08-20T03:46:23.135Z,95197.97
2022-08-20T03:49:25.751Z,95205.81
2022-08-20T03:52:27.765Z,95207.34
2022-08-20T03:55:30.656Z,95209.50
2022-08-20T03:58:35.645Z,95205.97
2022-08-20T04:01:45.952Z,95210.59
2022-08-20T04:04:48.192Z,95218.13
2022-08-20T04:07:50.090Z,95216.88
2022-08-20T04:10:51.905Z,95216.25
2022-08-20T04:13:53.613Z,95224.69
2022-08-20T04:16:57.574Z,95227.50
2022-08-20T04:19:59.316Z,95233.00
2022-08-20T04:23:01.006Z,95240.22
2022-08-20T04:26:02.712Z,95239.66
2022-08-20T04:29:04.914Z,95238.63
2022-08-20T04:32:08.164Z,95244.88
2022-08-20T04:35:13.065Z,95245.94
2022-08-20T04:38:15.947Z,95253.94
2022-08-20T04:41:21.023Z,95259.13
2022-08-20T04:44:25.474Z,95257.06
2022-08-20T04:47:34.968Z,95253.25
2022-08-20T04:50:37.756Z,95255.81
2022-08-20T04:53:39.446Z,95256.56
2022-08-20T04:56:41.112Z,95253.34
2022-08-20T04:59:42.849Z,95261.78
2022-08-20T05:02:46.019Z,95268.50
2022-08-20T05:05:48.129Z,95265.34
2022-08-20T05:08:50.006Z,95263.97
2022-08-20T05:11:51.711Z,95277.75
2022-08-20T05:14:53.394Z,95278.25
2022-08-20T05:17:57.976Z,95276.75
2022-08-20T05:21:01.603Z,95290.34
2022-08-20T05:24:03.545Z,95288.31
2022-08-20T05:27:05.305Z,95280.13
2022-08-20T05:30:11.795Z,95296.38
2022-08-20T05:33:17.664Z,95299.84
2022-08-20T05:36:19.699Z,95287.44
2022-08-20T05:39:22.126Z,95295.25
2022-08-20T05:42:23.819Z,95291.34
2022-08-20T05:45:25.537Z,95290.56
2022-08-20T05:48:29.293Z,95286.72
2022-08-20T05:51:30.958Z,95293.63
2022-08-20T05:54:32.732Z,95294.97
2022-08-20T05:57:34.505Z,95302.13
2022-08-20T06:00:36.540Z,95301.59
2022-08-20T06:03:39.598Z,95290.06
2022-08-20T06:06:45.937Z,95289.03
2022-08-20T06:09:49.007Z,95300.88
2022-08-20T06:12:50.759Z,95312.41
2022-08-20T06:15:52.500Z,95313.47
2022-08-20T06:18:55.530Z,95320.66
2022-08-20T06:22:00.217Z,95312.50
2022-08-20T06:25:02.470Z,95323.72
2022-08-20T06:28:05.271Z,95330.38
2022-08-20T06:31:06.949Z,95327.97
2022-08-20T06:34:10.076Z,95335.44
2022-08-20T06:37:15.002Z,95349.06
2022-08-20T06:40:17.839Z,95350.09
2022-08-20T06:43:19.636Z,95346.56
2022-08-20T06:46:21.534Z,95344.72
2022-08-20T06:49:24.617Z,95344.13
2022-08-20T06:52:52.242Z,95347.06
2022-08-20T06:55:52.939Z,95362.22
2022-08-20T06:58:54.604Z,95355.97
2022-08-20T07:01:56.241Z,95354.38
2022-08-20T07:04:59.284Z,95367.72
2022-08-20T07:08:01.084Z,95355.31
2022-08-20T07:11:03.198Z,95377.59
2022-08-20T07:14:04.908Z,95363.31
2022-08-20T07:17:06.662Z,95362.91
2022-08-20T07:20:15.423Z,95371.06
2022-08-20T07:23:17.126Z,95369.25
2022-08-20T07:26:19.194Z,95375.81
2022-08-20T07:29:21.723Z,95384.50
2022-08-20T07:32:24.360Z,95376.78
2022-08-20T07:35:32.030Z,95376.03
2022-08-20T07:38:34.269Z,95383.03
2022-08-20T07:41:36.197Z,95388.34
2022-08-20T07:44:37.975Z,95388.34
2022-08-20T07:47:40.220Z,95390.16
2022-08-20T07:50:43.447Z,95396.50
2022-08-20T07:53:46.130Z,95392.66
2022-08-20T07:56:47.808Z,95384.69
2022-08-20T07:59:51.417Z,95396.41
2022-08-20T08:02:53.162Z,95402.81
2022-08-20T08:05:56.278Z,95394.81
2022-08-20T08:08:59.262Z,95393.63
2022-08-20T08:12:01.038Z,95410.16
2022-08-20T08:15:04.292Z,95400.16
2022-08-20T08:18:08.189Z,95386.88
2022-08-20T08:21:11.595Z,95403.09
2022-08-20T08:24:18.005Z,95406.91
2022-08-20T08:27:21.596Z,95404.81
2022-08-20T08:30:23.283Z,95409.09
2022-08-20T08:33:26.310Z,95404.31
2022-08-20T08:36:29.423Z,95414.03
2022-08-20T08:39:34.969Z,95412.75
2022-08-20T08:42:43.269Z,95407.56
2022-08-20T08:45:45.966Z,95410.13
2022-08-20T08:48:48.519Z,95409.81
2022-08-20T08:51:53.320Z,95414.41
2022-08-20T08:54:56.264Z,95405.72
2022-08-20T08:58:00.904Z,95412.91
2022-08-20T09:01:54.450Z,95425.59
2022-08-20T09:04:41.929Z,95421.16
2022-08-20T09:07:47.827Z,95421.75
2022-08-20T09:10:49.550Z,95414.94
2022-08-20T09:13:51.544Z,95420.22
2022-08-20T09:16:53.721Z,95416.56
2022-08-20T09:19:55.373Z,95420.50
2022-08-20T09:22:58.528Z,95421.75
2022-08-20T09:26:00.289Z,95421.59
2022-08-20T09:29:01.925Z,95428.78
2022-08-20T09:32:04.758Z,95423.22
2022-08-20T09:35:09.307Z,95438.75
2022-08-20T09:38:13.007Z,95446.16
2022-08-20T09:41:14.663Z,95440.69
2022-08-20T09:44:16.566Z,95443.59
2022-08-20T09:47:18.255Z,95449.19
2022-08-20T09:50:19.886Z,95444.81
2022-08-20T09:53:28.417Z,95449.59
2022-08-20T09:56:31.026Z,95449.16
2022-08-20T09:59:33.399Z,95448.75
2022-08-20T10:02:35.143Z,95448.47
2022-08-20T10:05:36.819Z,95445.75
2022-08-20T10:08:39.905Z,95440.91
2022-08-20T10:11:44.558Z,95428.13
2022-08-20T10:14:46.226Z,95439.63
2022-08-20T10:17:47.995Z,95435.91
2022-08-20T10:20:49.639Z,95436.72
2022-08-20T10:23:52.706Z,95440.91
2022-08-20T10:26:55.374Z,95440.91
2022-08-20T10:29:57.065Z,95441.00
2022-08-20T10:32:58.756Z,95434.94
2022-08-20T10:36:05.873Z,95440.25
2022-08-20T10:39:09.035Z,95444.16
2022-08-20T10:42:10.748Z,95447.56
2022-08-20T10:45:13.257Z,95441.78
2022-08-20T10:48:19.463Z,95457.19
2022-08-20T10:51:22.982Z,95455.94
2022-08-20T10:54:35.997Z,95456.72
2022-08-20T10:57:39.810Z,95438.44
2022-08-20T11:00:41.736Z,95450.38
2022-08-20T11:03:43.444Z,95439.97
2022-08-20T11:06:45.271Z,95453.81
2022-08-20T11:09:48.943Z,95447.41
2022-08-20T11:12:50.620Z,95451.25
2022-08-20T11:15:52.306Z,95452.75
2022-08-20T11:18:53.992Z,95450.56
2022-08-20T11:21:55.722Z,95456.97
2022-08-20T11:24:58.878Z,95464.47
2022-08-20T11:28:00.565Z,95463.09
2022-08-20T11:31:02.324Z,95457.78
2022-08-20T11:34:04.048Z,95452.75
2022-08-20T11:37:05.914Z,95454.25
2022-08-20T11:40:09.941Z,95457.13
2022-08-20T11:43:16.198Z,95461.97
2022-08-20T11:46:18.814Z,95462.06
2022-08-20T11:49:20.499Z,95452.78
2022-08-20T11:52:22.204Z,95460.03
2022-08-20T11:55:30.165Z,95463.44
2022-08-20T11:58:32.493Z,95469.34
2022-08-20T12:01:34.186Z,95470.53
2022-08-20T12:04:35.960Z,95486.31
2022-08-20T12:07:39.092Z,95478.00
2022-08-20T12:10:42.112Z,95472.06
2022-08-20T12:13:48.754Z,95484.44
2022-08-20T12:16:50.799Z,95474.03
2022-08-20T12:19:53.463Z,95480.31
2022-08-20T12:22:55.590Z,95467.47
2022-08-20T12:25:59.273Z,95473.09
2022-08-20T12:29:01.050Z,95474.59
2022-08-20T12:32:02.854Z,95477.97
2022-08-20T12:35:05.341Z,95481.69
2022-08-20T12:38:07.204Z,95478.63
2022-08-20T12:41:10.261Z,95481.69
2022-08-20T12:44:13.450Z,95487.84
2022-08-20T12:47:16.895Z,95484.59
2022-08-20T12:50:20.008Z,95482.03
2022-08-20T12:53:21.819Z,95480.91
2022-08-20T12:56:24.992Z,95479.41
2022-08-20T12:59:27.140Z,95489.72
2022-08-20T13:02:28.773Z,95483.75
2022-08-20T13:05:32.801Z,95476.59
2022-08-20T13:08:34.469Z,95476.16
2022-08-20T13:11:37.526Z,95489.41
2022-08-20T13:14:39.237Z,95498.25
2022-08-20T13:17:40.919Z,95499.81
2022-08-20T13:20:42.648Z,95496.44
2022-08-20T13:23:44.574Z,95484.69
2022-08-20T13:26:48.014Z,95497.78
2022-08-20T13:29:53.975Z,95491.56
2022-08-20T13:32:58.518Z,95494.72
2022-08-20T13:36:00.489Z,95496.34
2022-08-20T13:39:05.141Z,95493.25
2022-08-20T13:42:08.518Z,95499.59
2022-08-20T13:45:10.255Z,95488.84
2022-08-20T13:48:14.851Z,95478.41
2022-08-20T13:51:18.154Z,95479.97
2022-08-20T13:54:20.792Z,95483.03
2022-08-20T13:57:24.423Z,95484.69
2022-08-20T14:00:31.381Z,95488.78
2022-08-20T14:03:33.802Z,95480.50
2022-08-20T14:06:35.461Z,95481.34
2022-08-20T14:09:37.715Z,95488.25
2022-08-20T14:12:40.962Z,95489.22
2022-08-20T14:15:42.921Z,95478.53
2022-08-20T14:18:44.757Z,95471.44
2022-08-20T14:21:50.532Z,95481.94
2022-08-20T14:24:52.435Z,95477.69
2022-08-20T14:27:55.930Z,95474.63
2022-08-20T14:30:57.580Z,95481.69
2022-08-20T14:33:59.221Z,95467.81
2022-08-20T14:37:09.555Z,95466.50
2022-08-20T14:40:13.367Z,95464.47
2022-08-20T14:43:16.436Z,95465.16
2022-08-20T14:46:18.069Z,95461.66
2022-08-20T14:49:19.738Z,95476.50
2022-08-20T14:52:22.131Z,95472.84
2022-08-20T14:55:26.002Z,95475.13
2022-08-20T14:58:29.054Z,95474.31
2022-08-20T15:01:30.815Z,95461.97
2022-08-20T15:04:32.578Z,95475.66
2022-08-20T15:07:36.402Z,95467.94
2022-08-20T15:10:39.687Z,95469.91
2022-08-20T15:13:42.717Z,95466.00
2022-08-20T15:16:44.919Z,95472.22
2022-08-20T15:19:46.589Z,95463.28
2022-08-20T15:22:49.081Z,95469.41
2022-08-20T15:25:50.740Z,95473.16
2022-08-20T15:28:53.759Z,95471.88
2022-08-20T15:31:55.400Z,95473.00
2022-08-20T15:34:57.094Z,95473.25
2022-08-20T15:37:59.093Z,95474.53
2022-08-20T15:41:00.813Z,95487.50
2022-08-20T15:44:04.185Z,95483.06
2022-08-20T15:47:14.230Z,95490.13
2022-08-20T15:50:18.923Z,95498.00
2022-08-20T15:53:24.398Z,95497.41
2022-08-20T15:56:32.225Z,95499.53
2022-08-20T15:59:43.173Z,95505.34
2022-08-20T16:03:11.864Z,95512.06
2022-08-20T16:06:17.496Z,95508.69
2022-08-20T16:09:31.098Z,95515.16
2022-08-20T16:12:35.969Z,95515.78
2022-08-20T16:15:45.205Z,95523.00
2022-08-20T16:18:51.970Z,95523.69
2022-08-20T16:21:54.505Z,95528.81
2022-08-20T16:24:56.439Z,95527.09
2022-08-20T16:28:03.866Z,95527.19
2022-08-20T16:31:10.301Z,95530.00
2022-08-20T16:34:33.718Z,95525.06
2022-08-20T16:37:38.412Z,95532.56
2022-08-20T16:40:43.359Z,95531.13
2022-08-20T16:43:51.002Z,95528.66
2022-08-20T16:46:56.610Z,95529.25
2022-08-20T16:50:00.735Z,95534.81
2022-08-20T16:53:02.397Z,95542.66
2022-08-20T16:56:04.070Z,95534.47
2022-08-20T16:59:07.422Z,95527.19
2022-08-20T17:02:11.195Z,95533.50
2022-08-20T17:05:12.846Z,95530.19
2022-08-20T17:08:22.466Z,95533.59
2022-08-20T17:11:27.911Z,95528.56
2022-08-20T17:14:29.680Z,95526.09
2022-08-20T17:17:34.604Z,95526.94
2022-08-20T17:20:43.005Z,95531.38
2022-08-20T17:23:55.963Z,95534.78
2022-08-20T17:26:59.855Z,95536.84
2022-08-20T17:30:05.141Z,95539.13
2022-08-20T17:33:18.126Z,95538.03
2022-08-20T17:36:20.474Z,95543.56
2022-08-20T17:39:23.011Z,95543.31
2022-08-20T17:42:26.349Z,95547.75
2022-08-20T17:45:31.133Z,95543.75
2022-08-20T17:48:36.386Z,95547.75
2022-08-20T17:51:39.289Z,95554.06
2022-08-20T17:54:42.205Z,95562.00
2022-08-20T17:57:45.665Z,95555.69
2022-08-20T18:00:47.343Z,95556.31
2022-08-20T18:03:51.285Z,95546.34
2022-08-20T18:06:55.626Z,95543.75
2022-08-20T18:09:58.446Z,95547.91
2022-08-20T18:13:04.520Z,95544.75
2022-08-20T18:16:07.836Z,95548.31
2022-08-20T18:19:31.450Z,95556.44
2022-08-20T18:22:35.820Z,95556.69
2022-08-20T18:25:40.793Z,95553.41
2022-08-20T18:28:45.814Z,95557.22
2022-08-20T18:31:49.994Z,95557.75
2022-08-20T18:34:53.204Z,95563.97
2022-08-20T18:37:54.864Z,95564.59
2022-08-20T18:41:07.037Z,95567.22
2022-08-20T18:44:09.719Z,95570.31
2022-08-20T18:47:20.505Z,95571.41
2022-08-20T18:50:27.301Z,95574.50
2022-08-20T18:53:33.855Z,95574.94
2022-08-20T18:56:37.645Z,95573.31
2022-08-20T18:59:42.667Z,95577.13
2022-08-20T19:02:53.549Z,95576.38
2022-08-20T19:06:04.537Z,95577.97
2022-08-20T19:09:09.987Z,95580.81
2022-08-20T19:12:27.723Z,95575.78
2022-08-20T19:15:31.485Z,95569.69
2022-08-20T19:18:37.455Z,95578.59
2022-08-20T19:21:40.522Z,95571.50
2022-08-20T19:24:43.772Z,95572.34
2022-08-20T19:27:45.632Z,95570.66
2022-08-20T19:30:47.475Z,95563.22
2022-08-20T19:33:51.706Z,95566.25
2022-08-20T19:36:56.147Z,95563.03
2022-08-20T19:39:58.346Z,95564.16
2022-08-20T19:43:03.640Z,95558.69
2022-08-20T19:46:06.074Z,95554.50
2022-08-20T19:49:14.170Z,95553.75
2022-08-20T19:52:27.800Z,95555.03
2022-08-20T19:55:30.466Z,95546.31
2022-08-20T19:58:33.412Z,95552.75
2022-08-20T20:01:35.365Z,95549.28
2022-08-20T20:04:38.192Z,95559.44
2022-08-20T20:07:44.121Z,95556.84
2022-08-20T20:10:50.283Z,95559.72
2022-08-20T20:13:52.167Z,95554.25
2022-08-20T20:16:54.412Z,95554.63
2022-08-20T20:19:58.493Z,95557.03
2022-08-20T20:23:11.551Z,95560.47
2022-08-20T20:26:15.238Z,95561.31
2022-08-20T20:29:22.424Z,95557.31
2022-08-20T20:32:24.724Z,95552.34
2022-08-20T20:35:29.892Z,95551.09
2022-08-20T20:38:33.136Z,95553.31
2022-08-20T20:41:35.300Z,95554.84
2022-08-20T20:44:38.413Z,95552.03
2022-08-20T20:47:40.113Z,95555.75
2022-08-20T20:50:41.905Z,95565.28
2022-08-20T20:53:51.239Z,95561.19
2022-08-20T20:57:00.088Z,95562.00
2022-08-20T21:00:02.080Z,95562.00
2022-08-20T21:03:04.707Z,95560.50
2022-08-20T21:06:07.130Z,95565.69
2022-08-20T21:09:10.227Z,95570.19
2022-08-20T21:12:13.057Z,95572.09
2022-08-20T21:15:14.758Z,95575.38
2022-08-20T21:18:16.440Z,95572.66
2022-08-20T21:21:18.128Z,95568.53
2022-08-20T21:24:21.208Z,95573.78
2022-08-20T21:27:23.510Z,95576.31
2022-08-20T21:30:25.639Z,95580.91
2022-08-20T21:33:27.301Z,95571.53
2022-08-20T21:36:28.950Z,95567.16
2022-08-20T21:39:34.364Z,95567.00
2022-08-20T21:42:37.030Z,95564.09
2022-08-20T21:45:38.893Z,95568.03
2022-08-20T21:48:41.723Z,95567.63
2022-08-20T21:51:45.104Z,95561.53
2022-08-20T21:54:48.215Z,95563.22
2022-08-20T21:57:49.969Z,95558.38
2022-08-20T22:00:54.018Z,95556.72
2022-08-20T22:03:55.749Z,95549.00
2022-08-20T22:06:57.503Z,95548.75
2022-08-20T22:10:00.681Z,95543.69
2022-08-20T22:13:02.388Z,95547.00
2022-08-20T22:16:06.051Z,95546.91
2022-08-20T22:19:08.176Z,95533.13
2022-08-20T22:22:14.209Z,95538.38
2022-08-20T22:25:17.404Z,95533.94
2022-08-20T22:28:19.329Z,95530.53
2022-08-20T22:31:22.405Z,95525.63
2022-08-20T22:34:24.399Z,95525.47
2022-08-20T22:37:30.505Z,95519.50
2022-08-20T22:40:33.843Z,95518.09
2022-08-20T22:43:35.477Z,95516.69
2022-08-20T22:46:51.550Z,95515.63
2022-08-20T22:49:56.454Z,95518.31
2022-08-20T22:52:58.604Z,95512.25
2022-08-20T22:56:01.760Z,95507.22
2022-08-20T22:59:03.691Z,95512.63
2022-08-20T23:02:08.533Z,95509.97
2022-08-20T23:05:13.590Z,95506.78
2022-08-20T23:08:15.354Z,95508.84
2022-08-20T23:11:18.460Z,95504.41
2022-08-20T23:14:20.501Z,95504.78
2022-08-20T23:17:22.295Z,95501.88
2022-08-20T23:20:24.176Z,95500.59
2022-08-20T23:23:26.331Z,95500.16
2022-08-20T23:26:29.448Z,95496.41
2022-08-20T23:29:31.320Z,95501.63
2022-08-20T23:32:32.967Z,95492.59
2022-08-20T23:35:37.442Z,95490.56
2022-08-20T23:38:39.293Z,95496.88
2022-08-20T23:41:47.071Z,95482.38
2022-08-20T23:44:49.797Z,95482.22
2022-08-20T23:47:51.940Z,95483.06
2022-08-20T23:50:53.628Z,95482.56
2022-08-20T23:53:55.673Z,95481.88
2022-08-20T23:56:58.744Z,95481.53
